createdAt,value
2019-05-10T00:01:21.130Z,14.98
2019-05-10T00:04:10.038Z,14.98
2019-05-10T00:06:58.990Z,14.96
2019-05-10T00:09:30.184Z,14.93
2019-05-10T00:12:08.569Z,14.92
2019-05-10T00:14:46.669Z,14.93
2019-05-10T00:17:19.649Z,14.93
2019-05-10T00:19:50.751Z,14.91
2019-05-10T00:22:22.127Z,14.92
2019-05-10T00:25:04.029Z,14.87
2019-05-10T00:27:27.210Z,14.83
2019-05-10T00:29:58.389Z,14.85
2019-05-10T00:32:29.415Z,14.86
2019-05-10T00:35:00.411Z,14.87
2019-05-10T00:37:31.427Z,14.89
2019-05-10T00:40:02.385Z,14.81
2019-05-10T00:42:34.465Z,14.85
2019-05-10T00:45:07.318Z,14.86
2019-05-10T00:47:38.321Z,14.85
2019-05-10T00:50:09.349Z,14.87
2019-05-10T00:52:41.450Z,14.81
2019-05-10T00:55:19.141Z,14.81
2019-05-10T00:57:44.995Z,14.83
2019-05-10T01:00:15.985Z,14.83
2019-05-10T01:02:46.962Z,14.87
2019-05-10T01:05:18.366Z,14.90
2019-05-10T01:07:49.595Z,14.89
2019-05-10T01:10:20.696Z,14.91
2019-05-10T01:12:51.718Z,14.93
2019-05-10T01:15:22.752Z,14.90
2019-05-10T01:17:53.743Z,14.90
2019-05-10T01:20:24.801Z,14.91
2019-05-10T01:22:56.144Z,14.89
2019-05-10T01:25:35.354Z,14.93
2019-05-10T01:27:59.957Z,14.93
2019-05-10T01:30:31.063Z,14.93
2019-05-10T01:33:02.047Z,14.89
2019-05-10T01:35:33.164Z,14.90
2019-05-10T01:38:04.176Z,14.85
2019-05-10T01:40:35.336Z,14.85
2019-05-10T01:43:06.256Z,14.87
2019-05-10T01:45:37.410Z,14.86
2019-05-10T01:48:08.594Z,14.82
2019-05-10T01:50:39.665Z,14.85
2019-05-10T01:53:10.745Z,14.84
2019-05-10T01:55:51.482Z,14.81
2019-05-10T01:58:14.640Z,14.74
2019-05-10T02:00:45.702Z,14.76
2019-05-10T02:03:16.815Z,14.77
2019-05-10T02:05:48.093Z,14.80
2019-05-10T02:08:19.465Z,14.82
2019-05-10T02:10:50.623Z,14.77
2019-05-10T02:13:21.713Z,14.79
2019-05-10T02:15:52.887Z,14.78
2019-05-10T02:18:23.971Z,14.78
2019-05-10T02:20:55.071Z,14.76
2019-05-10T02:23:26.293Z,14.73
2019-05-10T02:26:09.007Z,14.72
2019-05-10T02:28:30.189Z,14.74
2019-05-10T02:31:01.286Z,14.75
2019-05-10T02:33:32.398Z,14.77
2019-05-10T02:36:03.767Z,14.78
2019-05-10T02:38:34.781Z,14.77
2019-05-10T02:41:05.912Z,14.80
2019-05-10T02:43:37.095Z,14.81
2019-05-10T02:46:08.311Z,14.82
2019-05-10T02:48:39.473Z,14.81
2019-05-10T02:51:10.653Z,14.82
2019-05-10T02:53:41.845Z,14.82
2019-05-10T02:56:29.647Z,14.80
2019-05-10T02:58:46.670Z,14.81
2019-05-10T03:01:18.253Z,14.82
2019-05-10T03:03:49.422Z,14.82
2019-05-10T03:06:20.650Z,14.84
2019-05-10T03:08:53.120Z,14.86
2019-05-10T03:11:25.421Z,14.87
2019-05-10T03:13:56.572Z,14.89
2019-05-10T03:16:27.760Z,14.93
2019-05-10T03:18:58.813Z,14.95
2019-05-10T03:21:30.510Z,14.96
2019-05-10T03:24:01.664Z,14.99
2019-05-10T03:26:49.565Z,15.03
2019-05-10T03:29:05.669Z,15.04
2019-05-10T03:31:36.879Z,15.06
2019-05-10T03:34:07.945Z,15.06
2019-05-10T03:36:39.011Z,15.05
2019-05-10T03:39:10.155Z,15.08
2019-05-10T03:41:41.188Z,15.09
2019-05-10T03:44:12.326Z,15.13
2019-05-10T03:46:43.432Z,15.16
2019-05-10T03:49:14.627Z,15.16
2019-05-10T03:51:45.621Z,15.18
2019-05-10T03:54:16.786Z,15.17
2019-05-10T03:56:47.889Z,15.17
2019-05-10T03:59:20.040Z,15.16
2019-05-10T04:01:51.236Z,15.15
2019-05-10T04:04:22.506Z,15.18
2019-05-10T04:06:53.489Z,15.19
2019-05-10T04:09:24.768Z,15.18
2019-05-10T04:11:55.872Z,15.18
2019-05-10T04:14:26.960Z,15.20
2019-05-10T04:16:58.017Z,15.23
2019-05-10T04:19:29.255Z,15.27
2019-05-10T04:22:00.436Z,15.31
2019-05-10T04:24:35.947Z,15.34
2019-05-10T04:27:04.425Z,15.36
2019-05-10T04:29:35.526Z,15.39
2019-05-10T04:32:06.718Z,15.39
2019-05-10T04:34:37.799Z,15.43
2019-05-10T04:37:08.852Z,15.45
2019-05-10T04:39:39.919Z,15.46
2019-05-10T04:42:11.043Z,15.50
2019-05-10T04:44:42.225Z,15.54
2019-05-10T04:47:13.405Z,15.55
2019-05-10T04:49:44.578Z,15.58
2019-05-10T04:52:15.653Z,15.60
2019-05-10T04:54:46.743Z,15.57
2019-05-10T04:57:17.724Z,15.59
2019-05-10T04:59:48.870Z,15.62
2019-05-10T05:02:22.179Z,15.63
2019-05-10T05:04:53.832Z,15.64
2019-05-10T05:07:25.056Z,15.69
2019-05-10T05:09:56.443Z,15.69
2019-05-10T05:12:27.646Z,15.72
2019-05-10T05:14:58.948Z,15.78
2019-05-10T05:17:30.062Z,15.83
2019-05-10T05:20:01.292Z,15.88
2019-05-10T05:22:32.434Z,15.90
2019-05-10T05:25:04.909Z,15.93
2019-05-10T05:27:36.162Z,15.89
2019-05-10T05:30:07.570Z,15.94
2019-05-10T05:32:44.304Z,16.02
2019-05-10T05:35:15.412Z,16.08
2019-05-10T05:37:46.066Z,16.09
2019-05-10T05:40:17.163Z,16.09
2019-05-10T05:42:48.219Z,16.09
2019-05-10T05:45:20.345Z,16.08
2019-05-10T05:47:51.444Z,16.14
2019-05-10T05:50:22.656Z,16.21
2019-05-10T05:52:54.035Z,16.37
2019-05-10T05:55:30.577Z,16.53
2019-05-10T05:58:04.526Z,16.59
2019-05-10T06:00:37.608Z,16.78
2019-05-10T06:03:05.135Z,16.86
2019-05-10T06:05:37.253Z,16.87
2019-05-10T06:08:21.441Z,16.91
2019-05-10T06:10:43.877Z,16.97
2019-05-10T06:13:14.396Z,17.02
2019-05-10T06:15:45.501Z,17.10
2019-05-10T06:18:16.708Z,17.17
2019-05-10T06:20:47.985Z,17.17
2019-05-10T06:23:19.263Z,17.24
2019-05-10T06:25:50.384Z,17.32
2019-05-10T06:28:26.834Z,17.39
2019-05-10T06:30:54.198Z,17.46
2019-05-10T06:33:25.317Z,17.54
2019-05-10T06:35:56.460Z,17.60
2019-05-10T06:38:27.619Z,17.63
2019-05-10T06:40:59.645Z,17.62
2019-05-10T06:43:30.815Z,17.65
2019-05-10T06:46:01.973Z,17.66
2019-05-10T06:48:33.805Z,17.73
2019-05-10T06:51:09.780Z,17.74
2019-05-10T06:53:42.301Z,17.69
2019-05-10T06:56:10.614Z,17.69
2019-05-10T06:58:41.679Z,17.75
2019-05-10T07:01:12.823Z,17.76
2019-05-10T07:03:43.817Z,17.87
2019-05-10T07:06:14.846Z,17.95
2019-05-10T07:08:46.105Z,17.96
2019-05-10T07:11:17.499Z,17.95
2019-05-10T07:13:52.793Z,17.99
2019-05-10T07:16:24.411Z,18.14
2019-05-10T07:18:54.991Z,18.38
2019-05-10T07:21:27.009Z,18.49
2019-05-10T07:23:58.071Z,18.63
2019-05-10T07:26:29.054Z,18.78
2019-05-10T07:29:00.243Z,19.04
2019-05-10T07:31:31.387Z,19.44
2019-05-10T07:34:02.566Z,19.79
2019-05-10T07:36:33.644Z,19.79
2019-05-10T07:39:08.385Z,19.91
2019-05-10T07:41:40.801Z,20.15
2019-05-10T07:44:14.971Z,20.53
2019-05-10T07:46:49.728Z,20.89
2019-05-10T07:49:23.791Z,21.12
2019-05-10T07:51:52.169Z,21.12
2019-05-10T07:54:23.427Z,21.34
2019-05-10T07:56:54.811Z,21.65
2019-05-10T07:59:30.404Z,21.95
2019-05-10T08:02:05.783Z,22.02
2019-05-10T08:04:33.692Z,22.04
2019-05-10T08:07:07.554Z,21.98
2019-05-10T08:09:44.726Z,21.99
2019-05-10T08:12:14.920Z,21.81
2019-05-10T08:14:51.901Z,21.53
2019-05-10T08:17:25.917Z,21.30
2019-05-10T08:19:56.945Z,21.11
2019-05-10T08:22:32.822Z,20.89
2019-05-10T08:25:02.370Z,20.69
2019-05-10T08:27:34.679Z,20.60
2019-05-10T08:30:24.361Z,20.52
2019-05-10T08:32:39.504Z,20.55
2019-05-10T08:35:16.221Z,20.41
2019-05-10T08:37:43.581Z,20.35
2019-05-10T08:40:19.709Z,20.24
2019-05-10T08:42:54.643Z,20.14
2019-05-10T08:45:22.665Z,20.11
2019-05-10T08:48:00.745Z,20.10
2019-05-10T08:50:44.228Z,20.07
2019-05-10T08:53:02.330Z,20.09
2019-05-10T08:55:32.472Z,20.21
2019-05-10T08:58:03.604Z,20.13
2019-05-10T09:00:49.422Z,20.10
2019-05-10T09:03:09.736Z,20.12
2019-05-10T09:05:43.128Z,20.05
2019-05-10T09:08:19.495Z,20.02
2019-05-10T09:10:46.144Z,20.08
2019-05-10T09:13:18.411Z,20.11
2019-05-10T09:15:56.064Z,20.07
2019-05-10T09:18:23.027Z,20.02
2019-05-10T09:21:00.359Z,19.96
2019-05-10T09:23:27.011Z,19.89
2019-05-10T09:26:03.590Z,19.79
2019-05-10T09:28:32.198Z,19.75
2019-05-10T09:31:17.169Z,19.73
2019-05-10T09:33:43.373Z,19.66
2019-05-10T09:36:09.233Z,19.81
2019-05-10T09:38:43.384Z,19.91
2019-05-10T09:41:13.022Z,20.01
2019-05-10T09:43:48.652Z,20.08
2019-05-10T09:46:17.107Z,20.07
2019-05-10T09:48:48.190Z,20.09
2019-05-10T09:51:27.962Z,20.01
2019-05-10T09:53:52.097Z,19.91
2019-05-10T09:56:23.260Z,19.87
2019-05-10T09:58:54.227Z,19.78
2019-05-10T10:01:25.399Z,19.81
2019-05-10T10:03:58.367Z,19.84
2019-05-10T10:06:29.937Z,19.90
2019-05-10T10:09:01.377Z,19.93
2019-05-10T10:11:32.984Z,19.93
2019-05-10T10:14:07.621Z,19.90
2019-05-10T10:16:38.068Z,19.93
2019-05-10T10:19:09.156Z,19.89
2019-05-10T10:21:40.169Z,19.85
2019-05-10T10:24:15.681Z,19.85
2019-05-10T10:26:44.237Z,19.87
2019-05-10T10:29:17.296Z,19.97
2019-05-10T10:31:55.247Z,19.98
2019-05-10T10:34:21.191Z,20.00
2019-05-10T10:36:52.304Z,19.99
2019-05-10T10:39:24.437Z,20.00
2019-05-10T10:41:57.159Z,19.97
2019-05-10T10:44:28.540Z,19.99
2019-05-10T10:46:59.735Z,20.23
2019-05-10T10:49:32.113Z,20.46
2019-05-10T10:52:05.791Z,20.74
2019-05-10T10:54:39.206Z,20.98
2019-05-10T10:57:08.956Z,21.16
2019-05-10T10:59:40.040Z,21.36
2019-05-10T11:04:46.542Z,21.54
2019-05-10T11:07:16.952Z,21.47
2019-05-10T11:09:48.088Z,21.32
2019-05-10T11:12:21.064Z,21.07
2019-05-10T11:14:52.098Z,20.92
2019-05-10T11:17:23.151Z,20.84
2019-05-10T11:19:54.190Z,20.84
2019-05-10T11:22:27.377Z,20.80
2019-05-10T11:25:01.327Z,20.67
2019-05-10T11:27:31.863Z,20.58
2019-05-10T11:30:02.952Z,20.57
2019-05-10T11:32:34.042Z,20.70
2019-05-10T11:35:05.983Z,20.77
2019-05-10T11:37:37.077Z,20.76
2019-05-10T11:40:11.283Z,20.68
2019-05-10T11:42:43.679Z,20.52
2019-05-10T11:45:15.172Z,20.40
2019-05-10T11:47:47.996Z,19.93
2019-05-10T11:50:28.724Z,19.78
2019-05-10T11:52:51.700Z,19.82
2019-05-10T11:55:22.850Z,20.01
2019-05-10T11:58:02.897Z,19.91
2019-05-10T12:00:33.614Z,19.93
2019-05-10T12:03:07.728Z,19.85
2019-05-10T12:05:34.160Z,19.91
2019-05-10T12:08:05.169Z,19.85
2019-05-10T12:10:43.055Z,19.95
2019-05-10T12:13:18.561Z,20.06
2019-05-10T12:15:42.845Z,20.27
2019-05-10T12:21:00.397Z,19.81
2019-05-10T12:23:30.213Z,19.60
2019-05-10T12:26:50.305Z,20.20
2019-05-10T12:26:59.104Z,19.44
2019-05-10T12:28:29.007Z,19.47
2019-05-10T12:31:07.596Z,19.65
2019-05-10T12:33:42.895Z,19.87
2019-05-10T12:36:22.344Z,19.96
2019-05-10T12:38:45.108Z,20.02
2019-05-10T12:41:16.212Z,20.01
2019-05-10T12:43:51.476Z,19.98
2019-05-10T12:46:24.224Z,20.00
2019-05-10T12:49:08.358Z,19.97
2019-05-10T12:51:40.935Z,19.91
2019-05-10T12:54:12.371Z,19.92
2019-05-10T12:56:45.942Z,19.93
2019-05-10T12:59:16.333Z,19.77
2019-05-10T13:01:47.441Z,19.91
2019-05-10T13:04:18.571Z,19.90
2019-05-10T13:06:49.632Z,19.88
2019-05-10T13:09:35.974Z,19.90
2019-05-10T13:12:03.129Z,19.95
2019-05-10T13:14:29.116Z,20.00
2019-05-10T13:17:03.750Z,20.02
2019-05-10T13:19:32.041Z,20.06
2019-05-10T13:22:06.945Z,20.19
2019-05-10T13:24:36.639Z,20.28
2019-05-10T13:27:07.713Z,20.26
2019-05-10T13:29:40.724Z,20.16
2019-05-10T13:32:14.772Z,20.10
2019-05-10T13:34:44.751Z,20.05
2019-05-10T13:37:23.130Z,19.95
2019-05-10T13:39:48.470Z,20.00
2019-05-10T13:42:20.478Z,20.08
2019-05-10T13:44:51.547Z,20.09
2019-05-10T13:47:22.671Z,20.13
2019-05-10T13:49:53.853Z,20.17
2019-05-10T13:52:30.039Z,20.17
2019-05-10T13:54:58.152Z,20.17
2019-05-10T13:57:29.319Z,20.07
2019-05-10T14:00:02.412Z,20.07
2019-05-10T14:02:34.922Z,20.02
2019-05-10T14:05:11.967Z,19.94
2019-05-10T14:07:39.885Z,19.89
2019-05-10T14:10:11.224Z,19.78
2019-05-10T14:12:42.337Z,19.79
2019-05-10T14:15:20.716Z,19.75
2019-05-10T14:17:56.141Z,19.64
2019-05-10T14:20:27.716Z,19.64
2019-05-10T14:23:01.055Z,19.70
2019-05-10T14:25:36.429Z,19.71
2019-05-10T14:28:09.800Z,19.78
2019-05-10T14:30:38.309Z,19.94
2019-05-10T14:33:14.828Z,20.03
2019-05-10T14:35:42.111Z,20.05
2019-05-10T14:38:13.879Z,20.11
2019-05-10T14:40:47.318Z,20.14
2019-05-10T14:43:18.681Z,20.12
2019-05-10T14:45:58.301Z,20.06
2019-05-10T14:48:35.440Z,19.98
2019-05-10T14:51:11.009Z,19.87
2019-05-10T14:53:38.887Z,19.80
2019-05-10T14:56:14.008Z,19.72
2019-05-10T14:58:44.151Z,19.67
2019-05-10T15:01:15.531Z,19.64
2019-05-10T15:03:47.736Z,19.60
2019-05-10T15:06:19.194Z,19.55
2019-05-10T15:08:50.415Z,19.49
2019-05-10T15:11:26.457Z,19.46
2019-05-10T15:13:54.706Z,19.39
2019-05-10T15:16:30.347Z,19.39
2019-05-10T15:18:58.588Z,19.24
2019-05-10T15:21:30.151Z,19.24
2019-05-10T15:24:03.046Z,19.22
2019-05-10T15:26:43.192Z,19.31
2019-05-10T15:29:07.276Z,19.30
2019-05-10T15:31:38.456Z,19.28
2019-05-10T15:34:09.582Z,19.29
2019-05-10T15:36:40.633Z,19.29
2019-05-10T15:39:11.693Z,19.29
2019-05-10T15:41:42.880Z,19.36
2019-05-10T15:44:14.056Z,19.44
2019-05-10T15:46:45.244Z,19.52
2019-05-10T15:49:21.097Z,19.49
2019-05-10T15:51:55.247Z,19.35
2019-05-10T15:54:21.785Z,19.39
2019-05-10T15:56:55.372Z,19.29
2019-05-10T15:59:26.671Z,19.29
2019-05-10T16:01:57.819Z,19.26
2019-05-10T16:04:28.951Z,19.32
2019-05-10T16:07:00.175Z,19.62
2019-05-10T16:09:31.165Z,19.70
2019-05-10T16:12:08.034Z,19.70
2019-05-10T16:14:39.276Z,19.76
2019-05-10T16:17:10.384Z,19.86
2019-05-10T16:19:42.165Z,19.86
2019-05-10T16:22:13.365Z,19.88
2019-05-10T16:24:44.542Z,20.37
2019-05-10T16:27:15.485Z,20.37
2019-05-10T16:29:46.687Z,20.62
2019-05-10T16:32:17.785Z,20.84
2019-05-10T16:34:49.103Z,21.02
2019-05-10T16:37:20.427Z,21.13
2019-05-10T16:39:51.610Z,21.15
2019-05-10T16:42:27.920Z,21.21
2019-05-10T16:44:55.717Z,21.30
2019-05-10T16:47:26.736Z,21.28
2019-05-10T16:49:57.814Z,21.04
2019-05-10T16:52:28.895Z,20.78
2019-05-10T16:55:03.460Z,20.50
2019-05-10T16:57:37.441Z,20.24
2019-05-10T17:00:10.383Z,19.98
2019-05-10T17:02:41.936Z,19.77
2019-05-10T17:05:15.335Z,19.54
2019-05-10T17:07:45.855Z,19.37
2019-05-10T17:10:17.158Z,19.22
2019-05-10T17:12:48.228Z,18.96
2019-05-10T17:15:19.364Z,18.96
2019-05-10T17:17:50.432Z,18.85
2019-05-10T17:20:21.536Z,18.75
2019-05-10T17:22:52.593Z,18.65
2019-05-10T17:25:23.565Z,18.56
2019-05-10T17:27:57.411Z,18.49
2019-05-10T17:30:28.269Z,18.41
2019-05-10T17:33:03.909Z,18.35
2019-05-10T17:35:36.606Z,18.28
2019-05-10T17:38:07.847Z,18.22
2019-05-10T17:40:42.310Z,18.15
2019-05-10T17:43:14.367Z,18.08
2019-05-10T17:45:44.487Z,18.03
2019-05-10T17:48:15.462Z,17.96
2019-05-10T17:50:47.028Z,17.91
2019-05-10T17:53:18.180Z,17.87
2019-05-10T17:55:55.625Z,17.83
2019-05-10T17:58:27.677Z,17.77
2019-05-10T18:00:56.172Z,17.73
2019-05-10T18:03:27.219Z,17.68
2019-05-10T18:05:58.450Z,17.64
2019-05-10T18:08:29.635Z,17.62
2019-05-10T18:11:03.991Z,17.59
2019-05-10T18:13:35.616Z,17.55
2019-05-10T18:16:09.476Z,17.51
2019-05-10T18:18:46.302Z,17.49
2019-05-10T18:21:16.140Z,17.46
2019-05-10T18:23:46.156Z,17.42
2019-05-10T18:26:17.396Z,17.37
2019-05-10T18:28:48.819Z,17.32
2019-05-10T18:31:20.045Z,17.25
2019-05-10T18:33:54.544Z,17.20
2019-05-10T18:36:26.724Z,17.16
2019-05-10T18:38:57.039Z,17.07
2019-05-10T18:41:28.273Z,16.99
2019-05-10T18:43:59.496Z,16.93
2019-05-10T18:46:30.574Z,16.88
2019-05-10T18:49:01.715Z,16.85
2019-05-10T18:51:34.615Z,16.81
2019-05-10T18:54:05.937Z,16.78
2019-05-10T18:56:37.100Z,16.73
2019-05-10T18:59:09.255Z,16.69
2019-05-10T19:01:40.830Z,16.66
2019-05-10T19:04:15.599Z,16.63
2019-05-10T19:06:50.024Z,16.61
2019-05-10T19:09:18.719Z,16.58
2019-05-10T19:11:50.046Z,16.53
2019-05-10T19:14:23.820Z,16.49
2019-05-10T19:16:55.442Z,16.50
2019-05-10T19:19:26.654Z,16.49
2019-05-10T19:22:02.959Z,16.47
2019-05-10T19:24:32.233Z,16.43
2019-05-10T19:27:07.591Z,16.41
2019-05-10T19:29:45.536Z,16.37
2019-05-10T19:32:18.194Z,16.36
2019-05-10T19:34:48.376Z,16.33
2019-05-10T19:37:28.860Z,16.30
2019-05-10T19:39:49.789Z,16.28
2019-05-10T19:42:21.045Z,16.27
2019-05-10T19:44:52.096Z,16.25
2019-05-10T19:47:23.185Z,16.24
2019-05-10T19:49:54.237Z,16.22
2019-05-10T19:52:27.867Z,16.21
2019-05-10T19:54:59.171Z,16.19
2019-05-10T19:57:30.330Z,16.18
2019-05-10T20:00:01.689Z,16.17
2019-05-10T20:02:32.843Z,16.16
2019-05-10T20:05:05.359Z,16.15
2019-05-10T20:07:45.498Z,16.14
2019-05-10T20:10:09.313Z,16.15
2019-05-10T20:12:40.603Z,16.14
2019-05-10T20:15:11.703Z,16.12
2019-05-10T20:17:42.866Z,16.10
2019-05-10T20:20:14.077Z,16.09
2019-05-10T20:22:45.663Z,16.08
2019-05-10T20:25:16.789Z,16.06
2019-05-10T20:27:48.107Z,16.04
2019-05-10T20:30:19.316Z,16.05
2019-05-10T20:32:50.408Z,16.03
2019-05-10T20:35:22.711Z,16.01
2019-05-10T20:38:02.117Z,16.00
2019-05-10T20:40:26.665Z,15.99
2019-05-10T20:42:57.900Z,15.97
2019-05-10T20:45:28.971Z,15.96
2019-05-10T20:48:00.315Z,15.94
2019-05-10T20:50:31.536Z,15.92
2019-05-10T20:53:02.745Z,15.93
2019-05-10T20:55:33.949Z,15.92
2019-05-10T20:58:05.545Z,15.91
2019-05-10T21:00:36.849Z,15.89
2019-05-10T21:03:07.952Z,15.88
2019-05-10T21:05:39.210Z,15.87
2019-05-10T21:08:16.912Z,15.84
2019-05-10T21:10:43.329Z,15.83
2019-05-10T21:13:14.499Z,15.82
2019-05-10T21:15:45.537Z,15.79
2019-05-10T21:18:16.693Z,15.77
2019-05-10T21:20:47.638Z,15.79
2019-05-10T21:23:18.744Z,15.79
2019-05-10T21:25:49.855Z,15.79
2019-05-10T21:28:21.060Z,15.79
2019-05-10T21:30:53.595Z,15.77
2019-05-10T21:33:24.920Z,15.78
2019-05-10T21:35:56.115Z,15.78
2019-05-10T21:38:33.095Z,15.79
2019-05-10T21:41:00.023Z,15.79
2019-05-10T21:43:31.225Z,15.79
2019-05-10T21:46:02.376Z,15.79
2019-05-10T21:48:33.663Z,15.82
2019-05-10T21:51:04.704Z,15.79
2019-05-10T21:53:35.757Z,15.82
2019-05-10T21:56:06.839Z,15.79
2019-05-10T21:58:37.816Z,15.79
2019-05-10T22:01:08.829Z,15.81
2019-05-10T22:03:40.051Z,15.82
2019-05-10T22:06:11.121Z,15.81
2019-05-10T22:08:49.571Z,15.82
2019-05-10T22:11:14.853Z,15.86
2019-05-10T22:13:45.855Z,15.84
2019-05-10T22:16:16.883Z,15.87
2019-05-10T22:18:49.542Z,15.87
2019-05-10T22:21:20.573Z,15.90
2019-05-10T22:23:51.746Z,15.93
2019-05-10T22:26:22.696Z,15.96
2019-05-10T22:28:53.805Z,16.00
2019-05-10T22:31:24.960Z,16.02
2019-05-10T22:33:55.938Z,16.07
2019-05-10T22:36:27.310Z,16.08
2019-05-10T22:39:07.109Z,16.08
2019-05-10T22:41:31.139Z,16.10
2019-05-10T22:44:02.451Z,16.12
2019-05-10T22:46:33.454Z,16.12
2019-05-10T22:49:04.614Z,16.16
2019-05-10T22:51:35.533Z,16.16
2019-05-10T22:54:06.564Z,16.17
2019-05-10T22:56:37.579Z,16.15
2019-05-10T22:59:09.140Z,16.10
2019-05-10T23:01:40.185Z,16.12
2019-05-10T23:04:11.242Z,16.14
2019-05-10T23:06:42.175Z,16.15
2019-05-10T23:09:24.017Z,16.13
2019-05-10T23:11:47.079Z,16.09
2019-05-10T23:14:18.131Z,16.07
2019-05-10T23:16:49.131Z,16.03
2019-05-10T23:19:20.310Z,16.04
2019-05-10T23:21:51.387Z,16.04
2019-05-10T23:24:24.229Z,16.07
2019-05-10T23:26:55.373Z,16.08
2019-05-10T23:29:26.449Z,16.06
2019-05-10T23:31:58.833Z,16.04
2019-05-10T23:34:29.958Z,16.07
2019-05-10T23:37:00.964Z,16.07
2019-05-10T23:39:40.252Z,16.06
2019-05-10T23:42:04.868Z,16.08
2019-05-10T23:44:35.919Z,16.04
2019-05-10T23:47:06.992Z,16.03
2019-05-10T23:49:38.036Z,15.99
2019-05-10T23:52:09.248Z,15.97
2019-05-10T23:54:40.369Z,15.98
2019-05-10T23:57:11.446Z,15.95
2019-05-10T23:59:42.511Z,15.95
